Alcolu, SC (29001)

5:19 PM EST on February 14, 2016 (GMT -0500)
Kingsbury | | Change Station
CLOSE
Current Station
Personal Weather Station
Location: Sumter, SC
Elevation: 157 ft
Nearby Weather Stations

Elev 157 ft 33.89 °N, 80.37 °W | Updated 10 minutes ago

Clear
Clear
37.9 °F
Feels Like 38 °F
N
2.2
Wind Variable Wind from SE

Today
High -- | Low -- °F
--% Chance of Precip.
Yesterday
High -- | Low -- °F
Precip. -- in
Pressure 30.41 in
Visibility 10.0 miles
Clouds Clear
Windchill 38 °F
Dew Point 8 °F
Humidity 28%
Rainfall 0.00 in
Snow Depth Not available.
7:06 AM 6:03 PM
Waxing Crescent, 46% visible
METAR KSMS 142155Z AUTO VRB04KT 10SM CLR 41/19 A3041 RMK AO2
Pressure 30.41 in
Visibility 10.0 miles
Clouds Clear
Windchill 38 °F
Dew Point 8 °F
Humidity 28%
Rainfall 0.00 in
Snow Depth Not available.
7:06 AM 6:03 PM
Waxing Crescent, 46% visible
METAR KSMS 142155Z AUTO VRB04KT 10SM CLR 41/19 A3041 RMK AO2

10-Day Weather Forecast

Almanac

Astronomy

Feb. 14, 2016 Rise Set
Actual Time
Civil Twilight
Nautical Twilight
Astronomical Twilight
Moon
Length of Visible Light
Length of Day
Tomorrow will be .
, % of the Moon is Illuminated

Today's Extremes

State Highs State Lows

Community

WunderPhotos

Upload Photos

1,892,893 photos uploaded!

WunderBlog® & News

Nearby

Air Quality

  Air Quality AQ Index Pollutant
Not available.

Snow Depth

Station Depth Elevation

Earthquake Activity

City Distance Mag. Time & Date
Minimum magnitude displayed is 2.5.

Coastal Water Temperatures

Place Temperature

Stations

Nearby Weather Stations

Station Location Temp. Windchill Dew Point Humidity Wind Precip. Elev Updated Type
                   

Watches & Warnings

There are currently no watches in effect.